Time;durP1;ratioP1;P1;durP2;ratioP2;P2;SDS_P1;SDS_P2;PMS_P1;PMS_P2;Temp;Humidity;BMP_temperature;BMP_pressure;BME280_temperature;BME280_humidity;BME280_pressure;Samples;Min_cycle;Max_cycle;Signal;HPM_P1;HPM_P2
2021/12/18 00:02:15;;;;;;;3.70;3.40;;;;;;;2.52;88.15;100887.19;4936103;29;20028;-69
2021/12/18 00:04:41;;;;;;;4.30;3.67;;;;;;;2.54;88.18;100893.25;4936089;29;20055;-69
2021/12/18 00:07:07;;;;;;;2.00;1.90;;;;;;;2.65;88.61;100889.50;4947453;29;20030;-69
2021/12/18 00:09:33;;;;;;;2.45;1.50;;;;;;;2.58;88.63;100887.47;4947924;29;20677;-69
2021/12/18 00:12:00;;;;;;;3.25;3.00;;;;;;;2.66;88.33;100891.28;4955145;28;20029;-69
2021/12/18 00:14:26;;;;;;;3.35;2.50;;;;;;;2.63;88.14;100891.13;4954953;28;20074;-69
2021/12/18 00:16:51;;;;;;;4.05;2.63;;;;;;;2.61;88.27;100891.84;4954571;28;20035;-69
2021/12/18 00:19:17;;;;;;;2.35;2.15;;;;;;;2.50;88.48;100881.97;4954073;28;20037;-69
2021/12/18 00:21:43;;;;;;;4.38;3.75;;;;;;;2.53;88.38;100883.81;4954802;29;20034;-69
2021/12/18 00:24:09;;;;;;;2.03;1.77;;;;;;;2.40;88.79;100890.03;4954703;28;20023;-69
2021/12/18 00:26:35;;;;;;;2.65;2.42;;;;;;;2.49;88.69;100882.78;4954670;28;20464;-69
2021/12/18 00:29:01;;;;;;;2.22;2.03;;;;;;;2.49;88.67;100881.91;4954697;28;20432;-69
2021/12/18 00:31:26;;;;;;;6.32;3.17;;;;;;;2.39;88.74;100892.50;4954696;28;20027;-69
2021/12/18 00:33:52;;;;;;;4.75;3.72;;;;;;;2.44;89.15;100888.50;4954462;28;20035;-69
2021/12/18 00:36:17;;;;;;;2.40;2.20;;;;;;;2.41;89.03;100883.22;4952272;28;20485;-69
2021/12/18 00:38:43;;;;;;;7.13;3.28;;;;;;;2.36;89.74;100889.78;4943116;29;20027;-69
2021/12/18 00:41:14;;;;;;;4.75;2.58;;;;;;;2.33;89.58;100877.75;4935629;29;20390;-69
2021/12/18 00:46:26;;;;;;;5.75;3.40;;;;;;;2.16;90.23;100886.25;4935509;29;20447;-69
2021/12/18 00:48:51;;;;;;;4.68;2.80;;;;;;;2.21;90.68;100883.13;4935329;29;20031;-69
2021/12/18 00:51:17;;;;;;;5.82;4.55;;;;;;;2.33;89.82;100889.66;4933954;29;20504;-69
2021/12/18 00:53:42;;;;;;;2.95;2.78;;;;;;;2.30;90.22;100886.13;4933907;29;20058;-69
2021/12/18 00:56:07;;;;;;;6.07;3.22;;;;;;;2.29;90.14;100889.50;4935064;29;20030;-69
2021/12/18 00:58:33;;;;;;;3.45;2.83;;;;;;;2.47;89.36;100893.78;4935146;29;20469;-69
2021/12/18 08:00:25;;;;;;;3.60;2.25;;;;;;;2.25;89.57;100909.72;5887818;23;20015;-68
2021/12/18 08:02:51;;;;;;;1.67;1.58;;;;;;;2.33;88.83;100907.56;4955383;28;20051;-68
2021/12/18 08:05:16;;;;;;;1.73;1.63;;;;;;;2.35;89.17;100913.63;4955298;28;20019;-68
2021/12/18 08:07:42;;;;;;;1.63;1.52;;;;;;;2.31;88.91;100908.34;4953167;28;20070;-68
2021/12/18 08:10:08;;;;;;;2.70;2.45;;;;;;;2.49;89.13;100913.50;4946986;28;20024;-68
2021/12/18 08:12:33;;;;;;;2.17;2.05;;;;;;;2.42;88.24;100910.53;4936157;29;20046;-68
2021/12/18 08:15:00;;;;;;;6.10;2.20;;;;;;;2.36;88.46;100910.25;4935963;29;20028;-68
2021/12/18 08:17:26;;;;;;;4.65;2.38;;;;;;;2.37;88.99;100919.69;4936092;29;20042;-68
2021/12/18 08:19:51;;;;;;;3.70;1.48;;;;;;;2.52;88.76;100910.22;4936013;29;20111;-68
2021/12/18 08:22:17;;;;;;;1.13;1.13;;;;;;;2.45;88.18;100910.72;4935730;29;20201;-68
2021/12/18 08:24:42;;;;;;;4.05;2.30;;;;;;;2.41;88.48;100913.91;4935780;29;20026;-75
2021/12/18 08:27:08;;;;;;;1.63;1.60;;;;;;;2.33;89.63;100910.13;4935527;29;20020;-75
2021/12/18 08:29:33;;;;;;;4.75;1.38;;;;;;;2.25;89.34;100910.59;4935734;29;20032;-68
2021/12/18 08:31:59;;;;;;;2.35;1.73;;;;;;;2.42;89.12;100910.53;4935757;29;20114;-68
2021/12/18 08:34:25;;;;;;;1.15;1.13;;;;;;;2.50;89.06;100914.38;4934266;29;20114;-66
2021/12/18 08:36:50;;;;;;;2.33;2.15;;;;;;;2.57;88.51;100911.31;4935280;29;20040;-67
2021/12/18 08:39:17;;;;;;;2.13;1.92;;;;;;;2.74;87.90;100915.56;4931868;29;20035;-67
2021/12/18 08:41:44;;;;;;;6.93;1.38;;;;;;;2.54;88.58;100921.41;4929726;29;20027;-67
2021/12/18 08:44:10;;;;;;;3.65;1.70;;;;;;;2.71;88.08;100909.44;4935396;29;20023;-67
2021/12/18 08:46:35;;;;;;;2.10;2.00;;;;;;;2.55;87.49;100912.91;4935360;29;20034;-67
2021/12/18 08:49:01;;;;;;;3.55;2.22;;;;;;;2.51;88.08;100916.13;4935365;29;20032;-67
2021/12/18 08:51:26;;;;;;;3.15;1.95;;;;;;;2.57;87.64;100914.75;4935311;29;20058;-67
2021/12/18 08:53:53;;;;;;;2.50;1.33;;;;;;;2.45;87.63;100911.59;4935207;29;20039;-67
2021/12/18 08:56:18;;;;;;;1.77;1.67;;;;;;;2.56;87.35;100904.41;4935095;29;20395;-67
2021/12/18 08:58:43;;;;;;;1.83;1.75;;;;;;;2.56;87.64;100904.41;4935452;29;20034;-67
2021/12/18 09:01:09;;;;;;;2.22;2.13;;;;;;;2.45;88.08;100910.72;4935076;29;20031;-67
2021/12/18 09:03:34;;;;;;;2.58;2.38;;;;;;;2.35;88.86;100909.38;4935187;29;20028;-68
2021/12/18 09:06:02;;;;;;;2.05;1.92;;;;;;;2.62;87.60;100899.63;4935025;29;20074;-67
2021/12/18 09:08:28;;;;;;;2.60;1.98;;;;;;;2.59;87.15;100896.91;4926996;29;20028;-67
2021/12/18 09:10:53;;;;;;;3.67;2.88;;;;;;;2.71;86.72;100902.63;4927112;29;20476;-67
2021/12/18 09:13:19;;;;;;;2.25;1.63;;;;;;;2.61;87.19;100908.13;4933818;29;20140;-68
2021/12/18 09:15:45;;;;;;;5.85;3.58;;;;;;;2.60;87.43;100905.47;4933568;29;20027;-67
2021/12/18 09:18:10;;;;;;;1.95;1.85;;;;;;;2.56;86.72;100909.53;4934934;29;20477;-67
2021/12/18 09:20:36;;;;;;;1.85;1.55;;;;;;;2.39;86.84;100913.84;4934676;29;20080;-67
2021/12/18 09:23:02;;;;;;;4.63;2.72;;;;;;;2.42;86.78;100915.66;4934735;29;20040;-67
2021/12/18 09:25:28;;;;;;;2.50;2.35;;;;;;;2.34;86.63;100919.56;4934786;29;20030;-67
2021/12/18 09:27:57;;;;;;;6.68;3.10;;;;;;;2.42;86.59;100914.00;4934763;29;20035;-66
2021/12/18 09:30:24;;;;;;;2.35;2.15;;;;;;;2.54;86.06;100911.16;4934794;29;20019;-66
2021/12/18 09:32:50;;;;;;;1.90;1.73;;;;;;;2.51;86.23;100906.75;4934903;29;20032;-66
2021/12/18 09:35:16;;;;;;;2.92;2.72;;;;;;;2.49;85.68;100903.25;4934611;29;20433;-67
2021/12/18 09:37:42;;;;;;;2.25;2.05;;;;;;;2.49;85.89;100902.38;4927567;29;20028;-67
2021/12/18 09:40:09;;;;;;;2.20;1.98;;;;;;;2.52;86.09;100902.53;4931770;29;20026;-69
2021/12/18 09:42:36;;;;;;;2.65;2.45;;;;;;;2.73;84.92;100898.44;4933772;29;20031;-70
2021/12/18 09:45:03;;;;;;;1.30;1.27;;;;;;;2.97;82.85;100903.84;4934859;29;20024;-69
2021/12/18 09:47:29;;;;;;;5.90;2.50;;;;;;;2.71;83.90;100900.06;4934505;29;20440;-68
2021/12/18 09:49:55;;;;;;;1.60;1.50;;;;;;;2.78;83.87;100891.84;4934657;29;20086;-70
2021/12/18 09:52:21;;;;;;;2.40;2.13;;;;;;;2.65;84.20;100899.75;4934775;29;20038;-67
2021/12/18 09:54:47;;;;;;;3.75;2.70;;;;;;;2.67;84.33;100881.94;4934572;29;20024;-68
2021/12/18 09:57:13;;;;;;;4.13;2.05;;;;;;;2.71;84.14;100884.72;4934556;29;20476;-68
2021/12/18 09:59:38;;;;;;;2.78;1.73;;;;;;;2.90;84.61;100865.06;4934607;29;20031;-68
2021/12/18 10:02:04;;;;;;;2.25;1.70;;;;;;;3.09;82.46;100871.13;4934456;29;20028;-68
2021/12/18 10:04:34;;;;;;;2.28;2.08;;;;;;;2.93;82.73;100865.22;4934476;29;20035;-68
2021/12/18 10:07:02;;;;;;;4.13;2.90;;;;;;;3.06;82.76;100857.31;4934181;29;20028;-68
2021/12/18 10:09:35;;;;;;;2.63;2.42;;;;;;;2.92;82.59;100863.47;4926508;29;20028;-68
2021/12/18 10:12:23;;;;;;;1.98;1.83;;;;;;;3.00;82.63;100857.03;4934805;29;20096;-68
2021/12/18 10:14:49;;;;;;;1.23;1.23;;;;;;;3.10;83.15;100856.66;4933911;29;20098;-68
2021/12/18 10:17:33;;;;;;;2.15;1.70;;;;;;;2.97;82.32;100852.63;4934230;29;20436;-68
2021/12/18 10:20:11;;;;;;;2.15;2.03;;;;;;;3.16;81.71;100854.34;4934623;29;20087;-68
2021/12/18 10:22:45;;;;;;;1.00;1.00;;;;;;;3.04;81.71;100848.66;4934399;29;20042;-68
2021/12/18 10:25:14;;;;;;;1.63;1.52;;;;;;;2.75;83.00;100845.63;4934271;29;20492;-69
2021/12/18 10:27:42;;;;;;;2.45;2.25;;;;;;;2.90;83.56;100844.59;4934389;28;20027;-68
2021/12/18 10:30:12;;;;;;;3.28;2.13;;;;;;;2.57;83.43;100849.91;4934518;29;20024;-68
2021/12/18 10:32:37;;;;;;;2.40;1.20;;;;;;;2.43;83.96;100850.94;4934157;29;20067;-68
2021/12/18 10:35:04;;;;;;;2.33;1.13;;;;;;;2.62;82.69;100851.00;4937410;29;20136;-68
2021/12/18 10:37:34;;;;;;;4.35;1.73;;;;;;;2.58;83.07;100843.97;4934078;29;20550;-68
2021/12/18 10:40:11;;;;;;;1.13;1.10;;;;;;;2.72;83.07;100840.38;4933652;29;20032;-69
2021/12/18 10:42:42;;;;;;;2.47;2.28;;;;;;;2.64;82.68;100851.06;4937787;29;20028;-68
2021/12/18 10:45:16;;;;;;;1.55;1.55;;;;;;;2.64;82.59;100840.84;4937750;29;20020;-68
2021/12/18 10:47:43;;;;;;;1.60;1.58;;;;;;;2.60;82.91;100844.91;4937404;29;20040;-68
2021/12/18 10:50:27;;;;;;;2.17;2.08;;;;;;;2.85;81.90;100841.81;4936272;29;20034;-68
2021/12/18 10:52:56;;;;;;;2.33;2.22;;;;;;;3.18;80.90;100837.34;4937498;29;20038;-68
2021/12/18 10:55:27;;;;;;;1.27;1.27;;;;;;;2.96;81.30;100834.66;4952144;29;20396;-68
2021/12/18 10:57:54;;;;;;;3.47;2.10;;;;;;;3.23;80.13;100830.75;4937089;29;20546;-68
2021/12/18 11:00:50;;;;;;;3.00;2.80;;;;;;;3.25;80.16;100829.16;4937125;29;20031;-68
2021/12/18 11:03:17;;;;;;;1.95;1.85;;;;;;;3.40;79.76;100838.31;4936915;29;20504;-68
2021/12/18 11:05:43;;;;;;;3.33;2.53;;;;;;;3.43;78.51;100831.63;4937166;29;20028;-67
2021/12/18 11:08:11;;;;;;;2.22;2.13;;;;;;;3.34;79.04;100829.56;4929083;29;20035;-67
2021/12/18 11:10:42;;;;;;;12.80;2.42;;;;;;;3.53;78.58;100826.13;4935734;29;20395;-68
2021/12/18 11:15:53;;;;;;;3.50;1.50;;;;;;;3.52;79.91;100808.09;4936865;29;20111;-68
2021/12/18 11:18:19;;;;;;;1.98;1.88;;;;;;;3.50;79.19;100804.59;4937052;29;20028;-68
2021/12/18 11:20:49;;;;;;;1.50;1.27;;;;;;;3.56;79.16;100804.84;4936858;29;20070;-68
2021/12/18 11:23:18;;;;;;;1.77;1.60;;;;;;;3.26;79.67;100795.03;4936899;29;20056;-68
2021/12/18 11:25:45;;;;;;;4.85;3.17;;;;;;;3.28;79.37;100798.53;4936602;29;20114;-68
2021/12/18 11:28:13;;;;;;;3.03;1.67;;;;;;;3.21;79.17;100795.66;4936792;29;20037;-68
2021/12/18 11:30:38;;;;;;;2.65;2.03;;;;;;;3.23;79.23;100789.78;4936614;29;20103;-68
2021/12/18 11:33:05;;;;;;;5.07;1.42;;;;;;;3.40;78.54;100789.66;4936785;29;20455;-68
2021/12/18 11:35:30;;;;;;;4.60;3.08;;;;;;;3.58;78.82;100782.75;4936610;29;20020;-68
2021/12/18 11:38:01;;;;;;;3.22;2.08;;;;;;;3.68;78.82;100777.19;4929764;29;20366;-70
2021/12/18 11:40:32;;;;;;;2.80;1.83;;;;;;;3.78;78.54;100766.50;4936011;29;20032;-69
2021/12/18 11:42:58;;;;;;;1.25;1.15;;;;;;;3.67;78.25;100782.25;4936554;29;20036;-69
2021/12/18 11:45:33;;;;;;;2.33;1.90;;;;;;;3.68;77.96;100778.88;4936178;29;20027;-69
2021/12/18 11:47:59;;;;;;;3.55;1.85;;;;;;;3.34;79.03;100782.56;4936360;29;20059;-69
2021/12/18 11:50:24;;;;;;;3.38;1.77;;;;;;;3.40;79.08;100774.28;4936383;29;20059;-69
2021/12/18 11:52:56;;;;;;;2.97;2.70;;;;;;;3.65;78.01;100769.38;4936334;29;20070;-69
2021/12/18 11:55:23;;;;;;;1.85;1.75;;;;;;;3.32;78.50;100767.13;4936262;29;20027;-69
2021/12/18 11:57:51;;;;;;;2.08;1.98;;;;;;;3.55;78.65;100762.09;4936240;29;20091;-69
2021/12/18 12:00:21;;;;;;;1.55;1.45;;;;;;;3.43;78.47;100767.56;4936242;29;20028;-69
2021/12/18 12:02:49;;;;;;;;;;;;;;;3.61;78.46;100754.66;4936666;29;20031;-69
2021/12/18 12:05:30;;;;;;;2.28;2.10;;;;;;;3.58;77.75;100767.38;4950872;29;20009;-68
2021/12/18 12:08:25;;;;;;;2.13;1.98;;;;;;;3.65;78.63;100754.00;4929080;29;20104;-69
2021/12/18 12:11:17;;;;;;;7.43;2.55;;;;;;;3.84;77.89;100753.06;4917113;29;20040;-69
2021/12/18 12:14:06;;;;;;;3.42;2.15;;;;;;;3.96;77.03;100752.66;4917017;29;20035;-69
2021/12/18 12:16:43;;;;;;;5.05;1.92;;;;;;;3.66;77.09;100740.34;4916873;29;20062;-69
2021/12/18 12:19:13;;;;;;;1.80;1.65;;;;;;;3.98;76.59;100733.97;4916981;29;20508;-69
2021/12/18 12:21:51;;;;;;;3.45;1.70;;;;;;;3.64;77.57;100742.00;4916608;29;20465;-69
2021/12/18 12:24:19;;;;;;;1.48;1.38;;;;;;;3.69;77.81;100734.50;4916887;29;20028;-69
2021/12/18 12:26:45;;;;;;;1.73;1.40;;;;;;;3.90;75.90;100729.34;4916679;29;20028;-69
2021/12/18 12:29:13;;;;;;;1.45;1.35;;;;;;;3.83;76.89;100729.13;4916747;29;20087;-69
2021/12/18 12:32:05;;;;;;;2.58;1.60;;;;;;;4.00;76.13;100708.38;4916885;29;20035;-69
2021/12/18 12:34:37;;;;;;;2.58;2.38;;;;;;;3.73;76.59;100718.44;4916519;29;20031;-69
2021/12/18 12:37:30;;;;;;;1.63;1.52;;;;;;;3.96;76.10;100715.06;4928483;29;20032;-69
2021/12/18 12:40:02;;;;;;;1.95;1.90;;;;;;;4.12;76.08;100716.56;4931044;29;20031;-69
2021/12/18 12:42:27;;;;;;;2.25;1.90;;;;;;;3.46;77.25;100723.28;4935331;29;20532;-68
2021/12/18 12:45:02;;;;;;;4.45;1.80;;;;;;;3.75;77.32;100715.09;4935452;29;20035;-69
2021/12/18 12:47:30;;;;;;;5.32;2.30;;;;;;;3.75;76.85;100715.09;4935464;29;20024;-69
2021/12/18 12:50:20;;;;;;;4.40;2.33;;;;;;;3.73;76.73;100709.06;4935325;29;20019;-69
2021/12/18 12:52:58;;;;;;;1.63;1.52;;;;;;;3.75;76.08;100709.97;4935256;28;20031;-69
2021/12/18 12:55:29;;;;;;;2.33;2.13;;;;;;;3.70;77.39;100705.47;4934926;29;20024;-69
2021/12/18 12:58:00;;;;;;;2.35;2.15;;;;;;;3.81;77.21;100697.38;4934706;29;20531;-69
2021/12/18 13:00:28;;;;;;;6.95;2.53;;;;;;;3.64;77.50;100700.13;4935162;29;20485;-69
2021/12/18 13:02:55;;;;;;;2.80;2.58;;;;;;;4.09;77.07;100690.78;4935231;29;20058;-69
2021/12/18 13:05:22;;;;;;;1.83;1.70;;;;;;;4.63;74.25;100691.13;4935076;29;20028;-69
2021/12/18 13:07:53;;;;;;;2.35;2.15;;;;;;;4.56;74.19;100684.03;4934712;29;20051;-68
2021/12/18 13:10:25;;;;;;;7.88;2.35;;;;;;;5.41;72.15;100681.91;4917315;29;20036;-69
2021/12/18 13:12:59;;;;;;;2.90;2.67;;;;;;;5.76;69.28;100677.03;4916051;29;20036;-69
2021/12/18 13:15:25;;;;;;;2.08;1.67;;;;;;;5.67;68.82;100664.75;4915939;29;20063;-69
2021/12/18 13:18:08;;;;;;;2.83;2.30;;;;;;;5.45;70.23;100671.72;4914631;29;20052;-69
2021/12/18 13:21:00;;;;;;;2.58;2.30;;;;;;;5.94;68.74;100669.03;4915664;29;20024;-69
2021/12/18 13:23:37;;;;;;;1.40;1.40;;;;;;;5.32;70.10;100671.31;4911879;29;20040;-69
2021/12/18 13:26:04;;;;;;;3.30;1.77;;;;;;;5.52;70.24;100676.25;4915625;29;20047;-69
2021/12/18 13:28:29;;;;;;;4.88;3.10;;;;;;;5.97;68.81;100673.44;4915926;29;20035;-69
2021/12/18 13:30:55;;;;;;;2.47;1.98;;;;;;;6.61;66.73;100670.19;4915647;29;20036;-70
2021/12/18 13:33:26;;;;;;;3.20;1.67;;;;;;;6.58;67.71;100670.13;4916070;29;20102;-69
2021/12/18 13:36:02;;;;;;;1.45;1.35;;;;;;;6.62;66.44;100671.94;4918271;29;20035;-68
2021/12/18 13:38:40;;;;;;;3.55;1.98;;;;;;;6.47;66.87;100671.50;4926744;29;20020;-69
2021/12/18 13:41:10;;;;;;;2.45;2.25;;;;;;;5.78;69.01;100657.38;4934543;29;20035;-69
2021/12/18 13:43:36;;;;;;;8.90;2.13;;;;;;;5.37;71.04;100669.78;4934789;29;20110;-69
2021/12/18 13:46:05;;;;;;;4.20;2.22;;;;;;;5.12;72.03;100664.59;4934513;29;20099;-68
2021/12/18 13:48:37;;;;;;;1.25;1.15;;;;;;;4.67;73.89;100664.75;4934801;29;20369;-69
2021/12/18 13:51:11;;;;;;;2.30;2.17;;;;;;;4.54;74.76;100659.97;4934546;29;20028;-69
2021/12/18 13:53:49;;;;;;;5.35;2.13;;;;;;;4.18;77.03;100654.38;4934578;29;20027;-69
2021/12/18 13:56:16;;;;;;;2.22;2.03;;;;;;;4.07;77.61;100656.53;4934231;29;20078;-69
2021/12/18 13:58:43;;;;;;;5.40;3.67;;;;;;;4.05;77.93;100659.00;4934742;29;20067;-69
2021/12/18 14:01:12;;;;;;;3.55;2.97;;;;;;;3.93;79.48;100647.44;4934399;29;20035;-69
2021/12/18 14:03:37;;;;;;;4.25;2.15;;;;;;;4.05;78.56;100655.59;4934547;29;20027;-69
2021/12/18 14:06:15;;;;;;;2.22;1.85;;;;;;;4.06;79.07;100642.84;4934301;29;20381;-69
2021/12/18 14:08:44;;;;;;;1.92;1.83;;;;;;;3.74;79.76;100648.41;4945381;29;20030;-69
2021/12/18 14:11:14;;;;;;;2.42;2.08;;;;;;;3.49;80.95;100649.97;4938130;29;20038;-69
2021/12/18 14:13:50;;;;;;;3.00;2.17;;;;;;;3.74;81.00;100651.84;4938356;29;20027;-69
2021/12/18 14:16:17;;;;;;;1.98;1.88;;;;;;;3.49;81.10;100652.53;4952531;23;20102;-67
2021/12/18 14:18:50;;;;;;;1.98;1.88;;;;;;;3.51;82.08;100652.59;4957150;28;20043;-67
2021/12/18 14:21:17;;;;;;;2.65;2.55;;;;;;;3.53;81.97;100650.97;4957193;28;20039;-67
2021/12/18 14:23:44;;;;;;;2.10;2.00;;;;;;;3.65;81.66;100651.47;4957185;28;20097;-68
2021/12/18 14:26:20;;;;;;;1.88;1.77;;;;;;;3.49;82.35;100659.34;4956952;28;20387;-68
2021/12/18 14:28:46;;;;;;;2.95;2.75;;;;;;;3.34;84.06;100660.47;4957113;28;20034;-69
2021/12/18 14:31:38;;;;;;;4.93;2.92;;;;;;;3.48;83.17;100652.47;4956954;28;20110;-69
2021/12/18 14:34:13;;;;;;;1.50;1.50;;;;;;;3.35;83.54;100651.09;4956804;29;20029;-69
2021/12/18 14:36:56;;;;;;;3.75;2.88;;;;;;;3.40;83.86;100648.72;4952428;28;20110;-69
2021/12/18 14:39:32;;;;;;;3.10;2.85;;;;;;;3.59;83.93;100640.97;4945494;29;20473;-69
2021/12/18 14:41:59;;;;;;;4.07;3.38;;;;;;;3.54;83.07;100642.47;4937918;29;20032;-69
2021/12/18 14:44:26;;;;;;;7.35;2.90;;;;;;;3.50;83.54;100645.72;4937751;29;20106;-69
2021/12/18 14:47:22;;;;;;;2.35;2.22;;;;;;;3.37;83.83;100649.47;4937462;28;20244;-69
2021/12/18 14:49:57;;;;;;;5.97;2.95;;;;;;;3.20;84.84;100651.34;4937572;29;20054;-69
2021/12/18 14:52:23;;;;;;;2.45;2.25;;;;;;;3.20;85.05;100653.91;4937724;29;20023;-67
2021/12/18 14:54:51;;;;;;;3.03;2.67;;;;;;;3.13;85.29;100649.31;4937513;29;20429;-68
2021/12/18 14:57:24;;;;;;;3.65;3.33;;;;;;;3.19;85.42;100652.16;4936123;28;20102;-66
2021/12/18 15:00:19;;;;;;;2.95;2.75;;;;;;;3.24;85.39;100642.97;4937293;28;20055;-69
2021/12/18 15:03:01;;;;;;;3.83;3.60;;;;;;;3.31;85.03;100650.09;4937564;28;20035;-70
2021/12/18 15:05:28;;;;;;;2.55;2.35;;;;;;;3.24;85.54;100648.09;4937167;28;20392;-69
2021/12/18 15:08:02;;;;;;;5.32;4.60;;;;;;;3.28;85.51;100656.78;4947851;29;20027;-69
2021/12/18 15:10:56;;;;;;;3.30;3.00;;;;;;;3.14;86.03;100650.19;4937550;28;20032;-69
2021/12/18 15:13:24;;;;;;;3.40;3.10;;;;;;;3.15;86.15;100657.97;4937267;29;20122;-69
2021/12/18 15:16:30;;;;;;;5.45;2.55;;;;;;;3.18;87.06;100655.50;4936718;29;20058;-69
2021/12/18 15:19:01;;;;;;;6.72;4.65;;;;;;;3.18;87.04;100663.19;4896013;29;20065;-69
2021/12/18 15:21:28;;;;;;;2.30;2.20;;;;;;;3.06;87.62;100657.56;4931610;29;20035;-69
2021/12/18 15:23:54;;;;;;;8.63;3.63;;;;;;;2.94;87.72;100659.59;4936838;29;20031;-69
2021/12/18 15:26:19;;;;;;;4.25;3.33;;;;;;;2.98;87.31;100653.81;4936757;29;20023;-69
2021/12/18 15:28:45;;;;;;;2.42;2.20;;;;;;;2.94;88.11;100662.16;4936940;29;20023;-69
2021/12/18 15:31:10;;;;;;;4.55;3.38;;;;;;;2.86;88.24;100656.72;4936665;29;20493;-69
2021/12/18 15:33:36;;;;;;;7.43;2.75;;;;;;;2.86;88.32;100654.16;4936655;29;20036;-70
2021/12/18 15:36:03;;;;;;;2.53;2.33;;;;;;;2.94;88.37;100651.91;4940294;29;20039;-66
2021/12/18 15:38:28;;;;;;;7.15;3.92;;;;;;;2.88;88.44;100649.09;4945013;28;20394;-66
2021/12/18 15:40:54;;;;;;;2.63;2.42;;;;;;;2.89;88.56;100653.41;4936544;29;20030;-66
2021/12/18 15:43:20;;;;;;;4.22;3.53;;;;;;;2.86;88.84;100645.63;4936623;29;20031;-67
2021/12/18 15:45:45;;;;;;;5.28;2.30;;;;;;;2.79;88.99;100652.13;4936217;28;20023;-66
2021/12/18 15:48:11;;;;;;;4.07;3.70;;;;;;;2.87;89.06;100647.34;4936324;28;20082;-67
2021/12/18 15:50:36;;;;;;;6.25;4.20;;;;;;;2.86;88.81;100640.50;4936330;29;20035;-67
2021/12/18 15:53:03;;;;;;;2.20;2.10;;;;;;;2.84;89.19;100646.41;4936354;29;20046;-67
2021/12/18 15:55:29;;;;;;;7.50;3.63;;;;;;;2.86;89.20;100643.06;4936117;29;20016;-66
2021/12/18 15:57:54;;;;;;;3.78;3.55;;;;;;;2.89;89.05;100638.03;4936272;29;20032;-66
2021/12/18 16:00:23;;;;;;;2.80;2.60;;;;;;;2.89;89.55;100640.59;4936519;29;20389;-67
2021/12/18 16:02:49;;;;;;;3.95;2.22;;;;;;;2.94;89.20;100639.13;4936088;29;20028;-67
2021/12/18 16:05:23;;;;;;;3.75;3.42;;;;;;;2.92;89.76;100643.31;4936274;29;20037;-67
2021/12/18 16:07:58;;;;;;;3.25;2.95;;;;;;;2.97;89.45;100641.81;4942486;29;20388;-67
2021/12/18 16:10:24;;;;;;;4.22;3.67;;;;;;;2.91;89.27;100641.56;4954053;29;20395;-66
2021/12/18 16:12:50;;;;;;;3.47;3.13;;;;;;;2.93;89.32;100637.38;4955138;28;20106;-66
2021/12/18 16:15:16;;;;;;;3.08;2.58;;;;;;;2.94;89.05;100636.56;4954943;28;20114;-67
2021/12/18 16:17:42;;;;;;;3.38;3.08;;;;;;;2.84;89.20;100641.28;4954744;28;20066;-66
2021/12/18 16:20:11;;;;;;;4.22;3.13;;;;;;;2.83;89.36;100636.97;4955025;28;20477;-66
2021/12/18 16:22:36;;;;;;;2.97;2.67;;;;;;;2.98;89.55;100639.31;4954956;28;20105;-67
2021/12/18 16:25:02;;;;;;;2.88;2.17;;;;;;;3.05;89.03;100632.78;4955028;28;20106;-67
2021/12/18 16:27:28;;;;;;;4.57;4.15;;;;;;;3.07;88.76;100638.81;4954676;28;20027;-67
2021/12/18 16:29:53;;;;;;;3.65;2.78;;;;;;;2.94;88.76;100636.56;4955238;28;20027;-67
2021/12/18 16:32:18;;;;;;;5.10;3.58;;;;;;;2.84;88.77;100638.72;4953784;28;20055;-67
2021/12/18 16:34:44;;;;;;;3.15;2.65;;;;;;;2.96;88.58;100634.94;4954751;28;20070;-67
2021/12/18 16:37:09;;;;;;;3.20;2.90;;;;;;;2.83;89.17;100634.41;4946446;28;20070;-66
2021/12/18 16:39:37;;;;;;;3.35;3.05;;;;;;;2.81;89.43;100636.03;4943485;28;20020;-67
2021/12/18 16:42:04;;;;;;;3.65;3.28;;;;;;;2.78;89.19;100625.66;4935392;29;20035;-66
2021/12/18 16:44:30;;;;;;;6.57;3.83;;;;;;;2.72;89.54;100625.41;4935217;29;20062;-66
2021/12/18 16:46:57;;;;;;;7.50;3.00;;;;;;;2.69;89.65;100630.38;4935410;28;20051;-66
2021/12/18 16:49:22;;;;;;;3.50;3.22;;;;;;;2.69;89.64;100622.72;4935279;29;20039;-66
2021/12/18 16:51:47;;;;;;;3.50;3.20;;;;;;;2.79;89.20;100614.63;4935358;29;20034;-67
2021/12/18 16:54:13;;;;;;;3.80;3.33;;;;;;;2.68;89.54;100608.16;4935116;29;20027;-67
2021/12/18 16:56:38;;;;;;;8.48;3.95;;;;;;;2.66;90.04;100609.78;4935026;29;20473;-67
2021/12/18 16:59:04;;;;;;;3.00;2.80;;;;;;;2.56;90.09;100607.63;4935287;29;20039;-66
2021/12/18 17:01:29;;;;;;;4.07;3.17;;;;;;;2.55;90.24;100608.44;4935156;29;20543;-66
2021/12/18 17:03:58;;;;;;;4.38;4.00;;;;;;;2.74;89.51;100603.31;4935045;29;20029;-67
2021/12/18 17:06:23;;;;;;;2.88;2.65;;;;;;;2.70;89.81;100615.91;4940036;28;20035;-66
2021/12/18 17:08:49;;;;;;;3.72;3.38;;;;;;;2.67;89.65;100611.53;4942850;29;20393;-67
2021/12/18 17:11:15;;;;;;;3.13;2.80;;;;;;;2.67;89.27;100616.66;4935090;29;20024;-67
2021/12/18 17:13:41;;;;;;;7.43;2.60;;;;;;;2.73;89.33;100616.91;4934893;29;20051;-67
2021/12/18 17:16:10;;;;;;;3.53;3.17;;;;;;;2.68;89.24;100618.41;4934751;29;20175;-67
2021/12/18 17:18:37;;;;;;;2.67;2.47;;;;;;;2.65;89.20;100623.38;4935093;28;20110;-67
2021/12/18 17:21:02;;;;;;;6.32;2.40;;;;;;;2.57;89.79;100619.63;4934903;29;20404;-66
2021/12/18 17:23:28;;;;;;;3.65;3.45;;;;;;;2.57;89.27;100625.63;4934895;29;20031;-67
2021/12/18 17:25:54;;;;;;;6.35;5.28;;;;;;;2.55;89.26;100627.22;4934538;29;20466;-67
2021/12/18 17:28:19;;;;;;;5.35;4.85;;;;;;;2.57;89.41;100624.75;4934774;29;20035;-66
2021/12/18 17:30:45;;;;;;;6.88;2.90;;;;;;;2.52;89.42;100623.69;4934765;29;20038;-67
2021/12/18 17:33:10;;;;;;;9.95;5.82;;;;;;;2.52;89.82;100629.66;4934776;29;20058;-67
2021/12/18 17:35:38;;;;;;;3.25;2.35;;;;;;;2.54;89.88;100615.25;4935212;29;20030;-67
2021/12/18 17:38:04;;;;;;;6.35;3.58;;;;;;;2.56;89.38;100617.84;4945699;28;20035;-67
2021/12/18 17:40:29;;;;;;;4.00;3.70;;;;;;;2.61;89.32;100611.28;4935333;28;20094;-66
2021/12/18 17:42:55;;;;;;;3.95;3.47;;;;;;;2.61;89.50;100611.28;4936395;29;20035;-67
2021/12/18 17:45:21;;;;;;;2.97;2.78;;;;;;;2.51;89.17;100609.09;4938889;29;20020;-69
2021/12/18 17:47:49;;;;;;;7.80;3.78;;;;;;;2.51;89.53;100609.09;4938668;29;20038;-68
2021/12/18 17:50:14;;;;;;;3.03;2.80;;;;;;;2.47;89.77;100605.56;4938605;28;20031;-69
2021/12/18 17:52:40;;;;;;;7.60;2.47;;;;;;;2.43;89.75;100607.91;4938600;29;20028;-69
2021/12/18 17:55:07;;;;;;;4.45;4.05;;;;;;;2.28;90.46;100610.66;4938453;29;20381;-69
2021/12/18 17:57:32;;;;;;;4.53;3.22;;;;;;;2.18;90.45;100613.63;4938120;29;20040;-70
2021/12/18 18:00:00;;;;;;;5.15;3.63;;;;;;;2.37;90.65;100620.41;4938455;29;20050;-69
2021/12/18 18:02:26;;;;;;;4.30;3.63;;;;;;;2.33;90.55;100624.53;4938306;29;20051;-69
2021/12/18 18:04:51;;;;;;;7.18;4.80;;;;;;;2.38;90.26;100622.19;4938410;29;20063;-69
2021/12/18 18:07:17;;;;;;;5.00;4.15;;;;;;;2.29;90.66;100623.53;4943908;29;20063;-69
2021/12/18 18:09:42;;;;;;;5.22;3.28;;;;;;;2.41;90.57;100624.84;4945115;28;20031;-69
2021/12/18 18:12:08;;;;;;;5.13;3.00;;;;;;;2.26;90.23;100623.38;4938103;29;20024;-69
2021/12/18 18:14:33;;;;;;;6.30;4.45;;;;;;;2.22;90.08;100621.47;4938035;29;20035;-69
2021/12/18 18:17:00;;;;;;;6.65;5.13;;;;;;;2.31;90.56;100621.88;4937714;29;20048;-69
2021/12/18 18:19:26;;;;;;;6.40;4.22;;;;;;;2.40;90.39;100630.78;4938025;28;20059;-69
2021/12/18 18:21:52;;;;;;;5.85;2.53;;;;;;;2.54;90.11;100617.81;4938045;29;20023;-69
2021/12/18 18:24:17;;;;;;;5.07;4.60;;;;;;;2.77;88.92;100623.06;4937994;29;20442;-69
2021/12/18 18:26:45;;;;;;;2.42;2.33;;;;;;;2.75;88.40;100625.53;4936617;28;20037;-69
2021/12/18 18:29:10;;;;;;;4.97;3.03;;;;;;;2.55;88.76;100623.78;4938070;29;20079;-69
2021/12/18 18:31:36;;;;;;;4.32;3.85;;;;;;;2.54;88.71;100619.50;4937792;29;20032;-69
2021/12/18 18:34:02;;;;;;;5.93;3.58;;;;;;;2.56;88.88;100613.66;4937945;29;20085;-69
2021/12/18 18:36:27;;;;;;;6.85;4.15;;;;;;;2.48;88.91;100606.44;4942462;29;20038;-69
2021/12/18 18:38:52;;;;;;;4.03;3.65;;;;;;;2.31;88.96;100608.22;4945517;28;20027;-69
2021/12/18 18:41:18;;;;;;;4.65;4.20;;;;;;;2.24;89.59;100614.75;4937565;29;20052;-69
2021/12/18 18:43:47;;;;;;;2.47;2.28;;;;;;;2.23;89.75;100613.03;4937559;29;20039;-69
2021/12/18 18:46:17;;;;;;;4.05;2.97;;;;;;;2.17;90.14;100622.94;4937484;29;20045;-69
2021/12/18 18:48:44;;;;;;;5.30;3.35;;;;;;;2.20;90.01;100627.34;4937509;29;20062;-69